createdAt,value
2023-03-26T00:25:31.290Z,7.07
2023-03-26T00:41:13.838Z,7
2023-03-26T00:56:56.623Z,7.02
2023-03-26T01:12:45.834Z,7.01
2023-03-26T01:28:20.956Z,6.9
2023-03-26T01:44:04.150Z,6.8
2023-03-26T01:59:47.026Z,6.54
2023-03-26T02:15:30.104Z,6.19
2023-03-26T02:46:55.536Z,6.07
2023-03-26T03:02:38.639Z,6.02
2023-03-26T03:18:21.758Z,6.07
2023-03-26T03:34:04.427Z,6.21
2023-03-26T03:49:46.703Z,6.32
2023-03-26T04:05:28.913Z,6.38
2023-03-26T04:36:53.650Z,6.47
2023-03-26T04:52:36.389Z,6.44
2023-03-26T04:53:23.797Z,6.62
2023-03-26T05:09:06.952Z,6.38
2023-03-26T05:24:55.883Z,6.35
2023-03-26T05:40:31.190Z,6.46
2023-03-26T05:56:13.412Z,6.69
2023-03-26T06:12:03.500Z,6.89
2023-03-26T06:27:38.991Z,7.07
2023-03-26T06:43:21.979Z,7.22
2023-03-26T07:14:46.506Z,7.61
2023-03-26T07:30:28.773Z,7.88
2023-03-26T07:46:18.288Z,8.41
2023-03-26T08:01:54.282Z,8.51
2023-03-26T08:17:36.616Z,8.31
2023-03-26T08:33:19.307Z,8.17
2023-03-26T08:49:01.460Z,8.21
2023-03-26T09:04:43.923Z,8.64
2023-03-26T09:20:33.931Z,9.16
2023-03-26T09:36:09.484Z,9.18
2023-03-26T10:07:41.329Z,10.2
2023-03-26T10:39:06.608Z,10.03
2023-03-26T11:41:57.135Z,10.62
2023-03-26T12:44:48.181Z,11.87
2023-03-26T13:00:30.797Z,12.26
2023-03-26T13:16:06.408Z,11.99
2023-03-26T13:31:48.612Z,12.06
2023-03-26T14:18:56.785Z,13.79
2023-03-26T14:34:39.040Z,13.12
2023-03-26T14:50:21.629Z,13.91
2023-03-26T15:06:11.639Z,14.26
2023-03-26T15:21:47.245Z,13.58
2023-03-26T15:37:29.497Z,13.09
2023-03-26T15:53:11.737Z,12.31
2023-03-26T16:08:54.197Z,11.74
2023-03-26T16:24:36.761Z,11.4
2023-03-26T16:40:26.330Z,10.91
2023-03-26T17:11:44.855Z,10.09
2023-03-26T17:27:34.915Z,9.68
2023-03-26T17:43:10.084Z,9.29
2023-03-26T17:58:53.099Z,9.05
2023-03-26T18:14:42.572Z,8.87
2023-03-26T18:30:18.476Z,8.7
2023-03-26T18:46:08.018Z,8.58
2023-03-26T19:01:50.390Z,8.49
2023-03-26T19:48:51.518Z,7.89
2023-03-26T20:04:34.141Z,7.7
2023-03-26T20:20:23.601Z,7.49
2023-03-26T20:51:48.267Z,7.01
2023-03-26T21:54:31.834Z,5.87
2023-03-26T22:10:14.279Z,5.73
2023-03-26T22:26:11.307Z,5.54
2023-03-26T22:41:40.290Z,5.31
2023-03-26T22:57:36.906Z,5.07
2023-03-26T23:13:05.921Z,4.8
2023-03-26T23:28:56.024Z,4.56
2023-03-26T23:44:31.324Z,4.28
